createdAt,value
2022-07-31T00:01:05.280Z,22.20
2022-07-31T00:04:08.146Z,22.20
2022-07-31T00:07:11.657Z,22.30
2022-07-31T00:10:15.879Z,22.20
2022-07-31T00:13:18.734Z,22.10
2022-07-31T00:16:41.661Z,22.10
2022-07-31T00:19:44.527Z,22.00
2022-07-31T00:22:50.471Z,22.00
2022-07-31T00:25:54.702Z,21.90
2022-07-31T00:28:57.591Z,21.80
2022-07-31T00:32:00.434Z,21.80
2022-07-31T00:35:03.331Z,21.80
2022-07-31T00:38:26.219Z,21.90
2022-07-31T00:41:40.366Z,21.80
2022-07-31T00:44:43.216Z,21.80
2022-07-31T00:47:50.621Z,21.80
2022-07-31T00:50:58.730Z,21.80
2022-07-31T00:54:01.583Z,21.80
2022-07-31T00:57:06.816Z,21.70
2022-07-31T01:00:11.341Z,21.60
2022-07-31T01:03:14.437Z,21.60
2022-07-31T01:06:17.383Z,21.60
2022-07-31T01:09:20.336Z,21.50
2022-07-31T01:12:32.507Z,21.40
2022-07-31T01:15:37.691Z,21.40
2022-07-31T01:18:41.645Z,21.40
2022-07-31T01:21:56.009Z,21.40
2022-07-31T01:25:08.669Z,21.30
2022-07-31T01:28:25.403Z,21.30
2022-07-31T01:31:37.015Z,21.40
2022-07-31T01:34:44.493Z,21.30
2022-07-31T01:37:51.540Z,21.20
2022-07-31T01:41:00.354Z,21.20
2022-07-31T01:44:05.520Z,21.20
2022-07-31T01:47:11.184Z,21.10
2022-07-31T01:50:42.816Z,21.10
2022-07-31T01:53:40.000Z,21.10
2022-07-31T01:56:44.539Z,21.10
2022-07-31T01:59:48.948Z,21.10
2022-07-31T02:02:54.509Z,21.10
2022-07-31T02:06:00.368Z,21.10
2022-07-31T02:09:06.676Z,21.10
2022-07-31T02:12:11.930Z,21.00
2022-07-31T02:15:17.567Z,21.00
2022-07-31T02:18:23.115Z,21.00
2022-07-31T02:21:26.433Z,21.00
2022-07-31T02:24:29.751Z,21.00
2022-07-31T02:27:53.673Z,21.00
2022-07-31T02:30:56.180Z,20.90
2022-07-31T02:34:00.915Z,21.00
2022-07-31T02:37:05.230Z,20.90
2022-07-31T02:40:10.456Z,20.90
2022-07-31T02:43:14.854Z,20.90
2022-07-31T02:46:19.305Z,20.90
2022-07-31T02:49:23.926Z,20.90
2022-07-31T02:52:27.009Z,20.80
2022-07-31T02:55:30.290Z,20.80
2022-07-31T02:58:33.224Z,20.90
2022-07-31T03:01:36.190Z,20.90
2022-07-31T03:04:40.539Z,20.90
2022-07-31T03:07:43.417Z,20.90
2022-07-31T03:10:47.138Z,20.90
2022-07-31T03:13:50.643Z,20.90
2022-07-31T03:16:54.675Z,20.90
2022-07-31T03:19:58.926Z,20.90
2022-07-31T03:23:03.021Z,20.90
2022-07-31T03:26:06.325Z,20.90
2022-07-31T03:29:42.517Z,20.90
2022-07-31T03:32:32.073Z,20.90
2022-07-31T03:35:39.267Z,20.90
2022-07-31T03:38:50.496Z,20.90
2022-07-31T03:41:55.891Z,21.00
2022-07-31T03:44:59.417Z,21.00
2022-07-31T03:48:02.779Z,20.90
2022-07-31T03:51:08.237Z,20.90
2022-07-31T03:54:11.181Z,20.90
2022-07-31T03:57:14.719Z,20.90
2022-07-31T04:00:18.095Z,20.90
2022-07-31T04:03:21.044Z,20.90
2022-07-31T04:06:25.245Z,20.90
2022-07-31T04:09:28.497Z,20.90
2022-07-31T04:12:31.423Z,20.90
2022-07-31T04:15:34.625Z,21.00
2022-07-31T04:18:37.477Z,21.00
2022-07-31T04:21:41.707Z,21.00
2022-07-31T04:24:44.576Z,21.00
2022-07-31T04:27:48.179Z,20.90
2022-07-31T04:30:51.722Z,20.90
2022-07-31T04:33:56.820Z,20.90
2022-07-31T04:37:01.343Z,20.80
2022-07-31T04:40:04.469Z,20.80
2022-07-31T04:43:07.379Z,20.80
2022-07-31T04:46:17.072Z,20.90
2022-07-31T04:49:20.869Z,20.90
2022-07-31T04:52:25.062Z,20.80
2022-07-31T04:55:27.907Z,20.90
2022-07-31T04:58:30.786Z,20.90
2022-07-31T05:01:34.131Z,20.80
2022-07-31T05:04:37.091Z,20.80
2022-07-31T05:07:41.405Z,20.70
2022-07-31T05:11:01.934Z,20.80
2022-07-31T05:14:07.868Z,20.80
2022-07-31T05:17:10.793Z,20.80
2022-07-31T05:20:13.703Z,20.90
2022-07-31T05:23:17.891Z,20.90
2022-07-31T05:26:21.181Z,21.00
2022-07-31T05:29:24.025Z,21.10
2022-07-31T05:32:26.897Z,21.10
2022-07-31T05:35:29.749Z,21.10
2022-07-31T05:38:34.142Z,21.20
2022-07-31T05:41:38.371Z,21.20
2022-07-31T05:44:42.724Z,21.20
2022-07-31T05:47:45.628Z,21.10
2022-07-31T05:50:50.377Z,21.10
2022-07-31T05:53:54.601Z,21.10
2022-07-31T05:56:57.494Z,21.10
2022-07-31T06:00:00.374Z,21.10
2022-07-31T06:03:07.268Z,21.10
2022-07-31T06:06:10.249Z,21.00
2022-07-31T06:09:14.541Z,20.90
2022-07-31T06:12:17.505Z,21.00
2022-07-31T06:15:20.417Z,21.20
2022-07-31T06:18:23.784Z,21.20
2022-07-31T06:21:30.615Z,21.30
2022-07-31T06:24:35.596Z,21.40
2022-07-31T06:27:42.062Z,21.50
2022-07-31T06:30:45.077Z,21.50
2022-07-31T06:33:48.895Z,21.20
2022-07-31T06:36:52.728Z,21.10
2022-07-31T06:39:57.010Z,21.30
2022-07-31T06:43:02.732Z,21.20
2022-07-31T06:46:13.931Z,21.30
2022-07-31T06:49:17.448Z,21.20
2022-07-31T06:52:20.862Z,21.20
2022-07-31T06:55:25.157Z,21.50
2022-07-31T06:58:28.248Z,21.60
2022-07-31T07:01:31.814Z,21.70
2022-07-31T07:05:05.536Z,21.70
2022-07-31T07:07:57.611Z,21.80
2022-07-31T07:11:01.833Z,21.90
2022-07-31T07:14:04.780Z,21.90
2022-07-31T07:17:08.018Z,21.80
2022-07-31T07:20:11.572Z,21.80
2022-07-31T07:23:14.448Z,21.60
2022-07-31T07:26:18.850Z,21.60
2022-07-31T07:29:21.792Z,21.60
2022-07-31T07:32:25.256Z,21.70
2022-07-31T07:35:33.818Z,21.70
2022-07-31T07:38:37.048Z,21.80
2022-07-31T07:41:41.868Z,21.80
2022-07-31T07:44:44.730Z,21.90
2022-07-31T07:47:53.903Z,21.90
2022-07-31T07:51:08.806Z,22.00
2022-07-31T07:54:11.785Z,22.00
2022-07-31T07:57:18.372Z,22.10
2022-07-31T08:00:21.465Z,22.20
2022-07-31T08:03:49.920Z,22.30
2022-07-31T08:06:47.403Z,22.30
2022-07-31T08:09:50.299Z,22.20
2022-07-31T08:12:55.056Z,22.10
2022-07-31T08:15:57.981Z,22.30
2022-07-31T08:19:01.326Z,22.50
2022-07-31T08:22:04.579Z,22.50
2022-07-31T08:25:14.413Z,22.40
2022-07-31T08:28:24.118Z,22.40
2022-07-31T08:31:27.130Z,22.60
2022-07-31T08:34:31.346Z,22.80
2022-07-31T08:37:51.691Z,22.90
2022-07-31T08:40:57.940Z,22.90
2022-07-31T08:44:04.327Z,22.90
2022-07-31T08:47:08.008Z,22.90
2022-07-31T08:50:13.899Z,23.00
2022-07-31T08:53:17.990Z,23.20
2022-07-31T08:56:21.876Z,23.40
2022-07-31T08:59:26.124Z,23.50
2022-07-31T09:02:29.058Z,23.60
2022-07-31T09:05:42.149Z,23.80
2022-07-31T09:08:46.136Z,23.90
2022-07-31T09:11:49.809Z,23.70
2022-07-31T09:14:54.031Z,23.60
2022-07-31T09:17:58.318Z,23.70
2022-07-31T09:21:04.542Z,24.00
2022-07-31T09:24:10.149Z,24.20
2022-07-31T09:27:14.526Z,24.40
2022-07-31T09:30:18.822Z,24.60
2022-07-31T09:33:22.616Z,24.60
2022-07-31T09:36:25.949Z,24.80
2022-07-31T09:39:29.836Z,24.90
2022-07-31T09:42:38.740Z,25.00
2022-07-31T09:45:58.717Z,25.00
2022-07-31T09:49:01.683Z,25.10
2022-07-31T09:52:04.890Z,25.30
2022-07-31T09:55:14.997Z,25.40
2022-07-31T09:58:19.966Z,25.50
2022-07-31T10:01:25.153Z,25.60
2022-07-31T10:04:28.523Z,25.70
2022-07-31T10:07:35.757Z,25.80
2022-07-31T10:10:39.156Z,25.70
2022-07-31T10:13:49.249Z,25.60
2022-07-31T10:16:59.941Z,25.60
2022-07-31T10:20:05.740Z,25.90
2022-07-31T10:23:16.111Z,25.80
2022-07-31T10:26:30.315Z,25.90
2022-07-31T10:29:42.600Z,26.10
2022-07-31T10:32:47.098Z,26.20
2022-07-31T10:35:58.844Z,26.40
2022-07-31T10:39:04.603Z,26.50
2022-07-31T10:42:13.398Z,26.70
2022-07-31T10:45:17.426Z,26.90
2022-07-31T10:48:22.102Z,27.00
2022-07-31T10:51:26.594Z,27.10
2022-07-31T10:54:40.291Z,27.20
2022-07-31T10:57:56.347Z,27.10
2022-07-31T11:01:08.029Z,27.10
2022-07-31T11:04:12.305Z,27.30
2022-07-31T11:07:20.070Z,27.30
2022-07-31T11:10:23.154Z,27.50
2022-07-31T11:13:33.756Z,27.40
2022-07-31T11:16:50.831Z,27.50
2022-07-31T11:19:55.319Z,27.40
2022-07-31T11:23:01.671Z,27.30
2022-07-31T11:26:07.718Z,27.00
2022-07-31T11:30:01.428Z,27.20
2022-07-31T11:32:34.676Z,27.40
2022-07-31T11:35:39.405Z,27.70
2022-07-31T11:38:47.485Z,27.90
2022-07-31T11:41:50.819Z,27.70
2022-07-31T11:44:54.608Z,27.60
2022-07-31T11:48:12.641Z,27.50
2022-07-31T11:51:30.969Z,27.50
2022-07-31T11:54:34.029Z,27.50
2022-07-31T11:57:50.928Z,27.50
2022-07-31T12:00:56.607Z,27.40
2022-07-31T12:04:07.650Z,27.40
2022-07-31T12:07:13.987Z,27.40
2022-07-31T12:10:17.316Z,27.50
2022-07-31T12:13:21.502Z,27.70
2022-07-31T12:16:24.384Z,27.70
2022-07-31T12:19:28.521Z,27.80
2022-07-31T12:22:33.155Z,27.70
2022-07-31T12:25:45.547Z,27.80
2022-07-31T12:28:58.196Z,28.00
2022-07-31T12:32:01.553Z,28.10
2022-07-31T12:35:06.105Z,28.30
2022-07-31T12:38:30.205Z,28.50
2022-07-31T12:41:43.291Z,28.70
2022-07-31T12:44:49.319Z,28.70
2022-07-31T12:47:54.860Z,28.80
2022-07-31T12:50:57.775Z,28.90
2022-07-31T12:54:04.629Z,28.60
2022-07-31T12:57:07.730Z,28.50
2022-07-31T13:00:12.325Z,28.80
2022-07-31T13:03:16.410Z,29.00
2022-07-31T13:06:19.300Z,29.10
2022-07-31T13:09:23.635Z,29.20
2022-07-31T13:12:26.527Z,29.20
2022-07-31T13:15:30.525Z,29.30
2022-07-31T13:18:35.554Z,29.30
2022-07-31T13:21:38.668Z,29.30
2022-07-31T13:24:53.973Z,29.20
2022-07-31T13:27:56.913Z,29.20
2022-07-31T13:30:59.815Z,28.90
2022-07-31T13:34:02.812Z,28.70
2022-07-31T13:37:06.129Z,29.00
2022-07-31T13:40:11.308Z,29.10
2022-07-31T13:43:14.572Z,29.00
2022-07-31T13:46:17.607Z,29.10
2022-07-31T13:49:20.656Z,29.30
2022-07-31T13:52:23.741Z,29.50
2022-07-31T13:55:27.993Z,29.50
2022-07-31T13:58:31.032Z,29.50
2022-07-31T14:02:04.734Z,29.60
2022-07-31T14:04:56.986Z,29.60
2022-07-31T14:08:32.831Z,29.60
2022-07-31T14:11:24.573Z,29.60
2022-07-31T14:14:27.470Z,29.70
2022-07-31T14:17:30.440Z,29.70
2022-07-31T14:20:34.423Z,29.70
2022-07-31T14:23:40.792Z,29.70
2022-07-31T14:26:45.267Z,29.50
2022-07-31T14:29:48.268Z,29.50
2022-07-31T14:32:51.136Z,29.60
2022-07-31T14:35:54.889Z,29.80
2022-07-31T14:38:58.321Z,29.90
2022-07-31T14:42:02.883Z,29.90
2022-07-31T14:45:07.083Z,29.90
2022-07-31T14:48:10.092Z,29.90
2022-07-31T14:51:18.551Z,29.90
2022-07-31T14:54:21.431Z,29.70
2022-07-31T14:57:25.675Z,29.70
2022-07-31T15:00:28.569Z,29.50
2022-07-31T15:03:32.229Z,29.50
2022-07-31T15:06:41.951Z,29.50
2022-07-31T15:09:58.202Z,29.60
2022-07-31T15:13:02.534Z,29.60
2022-07-31T15:16:06.074Z,29.50
2022-07-31T15:19:08.988Z,29.60
2022-07-31T15:22:16.947Z,29.50
2022-07-31T15:25:20.372Z,29.50
2022-07-31T15:28:24.669Z,29.40
2022-07-31T15:31:27.595Z,29.40
2022-07-31T15:34:32.618Z,29.40
2022-07-31T15:37:36.645Z,29.20
2022-07-31T15:40:39.647Z,29.20
2022-07-31T15:43:43.997Z,29.20
2022-07-31T15:46:47.059Z,29.20
2022-07-31T15:49:50.032Z,29.20
2022-07-31T15:52:53.308Z,29.10
2022-07-31T15:55:56.290Z,29.10
2022-07-31T15:59:01.362Z,29.10
2022-07-31T16:02:04.247Z,29.10
2022-07-31T16:05:11.987Z,29.00
2022-07-31T16:08:28.944Z,28.90
2022-07-31T16:12:03.538Z,29.00
2022-07-31T16:15:02.528Z,28.90
2022-07-31T16:18:05.861Z,29.00
2022-07-31T16:21:08.750Z,28.80
2022-07-31T16:24:11.637Z,28.70
2022-07-31T16:27:14.613Z,28.40
2022-07-31T16:30:19.055Z,28.40
2022-07-31T16:33:22.095Z,28.40
2022-07-31T16:36:24.977Z,28.40
2022-07-31T16:39:27.936Z,28.40
2022-07-31T16:42:30.857Z,28.30
2022-07-31T16:45:35.879Z,28.20
2022-07-31T16:48:38.724Z,28.30
2022-07-31T16:51:41.644Z,28.40
2022-07-31T16:54:45.287Z,28.30
2022-07-31T16:57:48.189Z,28.30
2022-07-31T17:00:52.678Z,28.40
2022-07-31T17:04:01.888Z,28.30
2022-07-31T17:07:06.477Z,28.30
2022-07-31T17:10:10.315Z,28.30
2022-07-31T17:13:13.190Z,28.20
2022-07-31T17:16:17.553Z,28.20
2022-07-31T17:19:36.658Z,28.20
2022-07-31T17:22:45.695Z,28.30
2022-07-31T17:25:56.358Z,28.30
2022-07-31T17:28:59.235Z,28.20
2022-07-31T17:32:03.545Z,28.20
2022-07-31T17:35:07.609Z,28.10
2022-07-31T17:38:16.259Z,28.00
2022-07-31T17:41:24.558Z,28.00
2022-07-31T17:44:28.082Z,28.00
2022-07-31T17:47:33.624Z,28.10
2022-07-31T17:50:36.992Z,28.10
2022-07-31T17:53:43.371Z,28.10
2022-07-31T17:56:57.885Z,28.00
2022-07-31T18:00:01.186Z,28.00
2022-07-31T18:03:05.660Z,27.90
2022-07-31T18:06:08.509Z,27.90
2022-07-31T18:09:11.360Z,28.00
2022-07-31T18:12:15.839Z,28.00
2022-07-31T18:15:19.155Z,28.00
2022-07-31T18:18:23.406Z,28.00
2022-07-31T18:21:26.268Z,27.90
2022-07-31T18:24:29.141Z,27.90
2022-07-31T18:27:32.097Z,27.80
2022-07-31T18:30:38.833Z,27.70
2022-07-31T18:33:43.443Z,27.70
2022-07-31T18:36:46.301Z,27.70
2022-07-31T18:39:49.482Z,27.70
2022-07-31T18:42:52.378Z,27.60
2022-07-31T18:45:55.255Z,27.60
2022-07-31T18:49:00.328Z,27.60
2022-07-31T18:52:03.998Z,27.60
2022-07-31T18:55:09.239Z,27.60
2022-07-31T18:58:12.182Z,27.60
2022-07-31T19:01:15.153Z,27.50
2022-07-31T19:04:19.395Z,27.50
2022-07-31T19:07:22.239Z,27.40
2022-07-31T19:10:29.120Z,27.40
2022-07-31T19:13:33.958Z,27.40
2022-07-31T19:16:37.117Z,27.30
2022-07-31T19:19:54.627Z,27.20
2022-07-31T19:22:58.167Z,27.10
2022-07-31T19:26:03.604Z,27.10
2022-07-31T19:29:07.484Z,27.00
2022-07-31T19:32:11.486Z,27.00
2022-07-31T19:35:15.691Z,27.00
2022-07-31T19:38:18.563Z,27.00
2022-07-31T19:41:21.756Z,27.00
2022-07-31T19:44:24.627Z,26.90
2022-07-31T19:47:27.576Z,26.90
2022-07-31T19:50:31.841Z,26.80
2022-07-31T19:53:34.803Z,26.80
2022-07-31T19:56:37.712Z,26.80
2022-07-31T19:59:40.671Z,26.80
2022-07-31T20:02:44.445Z,26.80
2022-07-31T20:05:48.637Z,26.80
2022-07-31T20:08:51.559Z,26.80
2022-07-31T20:11:54.467Z,26.70
2022-07-31T20:14:57.327Z,26.60
2022-07-31T20:18:00.201Z,26.60
2022-07-31T20:21:07.180Z,26.50
2022-07-31T20:24:11.430Z,26.50
2022-07-31T20:27:14.353Z,26.40
2022-07-31T20:30:21.670Z,26.40
2022-07-31T20:33:24.725Z,26.40
2022-07-31T20:36:29.074Z,26.40
2022-07-31T20:39:33.374Z,26.40
2022-07-31T20:42:36.872Z,26.40
2022-07-31T20:45:41.551Z,26.20
2022-07-31T20:48:45.280Z,26.20
2022-07-31T20:51:52.041Z,26.10
2022-07-31T20:54:54.892Z,26.20
2022-07-31T20:57:57.764Z,26.20
2022-07-31T21:01:00.713Z,26.10
2022-07-31T21:04:03.603Z,26.10
2022-07-31T21:07:08.575Z,26.10
2022-07-31T21:10:12.560Z,26.10
2022-07-31T21:13:17.709Z,26.00
2022-07-31T21:16:20.561Z,26.00
2022-07-31T21:19:23.425Z,26.00
2022-07-31T21:22:27.609Z,26.00
2022-07-31T21:25:31.459Z,26.10
2022-07-31T21:28:35.091Z,25.90
2022-07-31T21:31:48.937Z,25.90
2022-07-31T21:34:53.524Z,25.90
2022-07-31T21:37:58.790Z,25.90
2022-07-31T21:41:02.313Z,25.90
2022-07-31T21:44:06.321Z,25.90
2022-07-31T21:47:14.308Z,25.90
2022-07-31T21:50:28.617Z,25.80
2022-07-31T21:53:33.707Z,25.80
2022-07-31T21:56:36.591Z,25.70
2022-07-31T21:59:39.461Z,25.70
2022-07-31T22:02:42.337Z,25.70
2022-07-31T22:06:02.827Z,25.60
2022-07-31T22:09:07.112Z,25.60
2022-07-31T22:12:10.362Z,25.60
2022-07-31T22:15:15.655Z,25.50
2022-07-31T22:18:19.193Z,25.60
2022-07-31T22:21:23.218Z,25.40
2022-07-31T22:24:28.136Z,25.50
2022-07-31T22:27:48.677Z,25.40
2022-07-31T22:30:51.770Z,25.40
2022-07-31T22:33:55.008Z,25.30
2022-07-31T22:36:58.932Z,25.20
2022-07-31T22:40:04.500Z,25.30
2022-07-31T22:44:09.318Z,25.30
2022-07-31T22:46:32.470Z,25.30
2022-07-31T22:49:36.502Z,25.40
2022-07-31T22:52:40.049Z,25.40
2022-07-31T22:55:44.341Z,25.40
2022-07-31T22:58:47.205Z,25.30
2022-07-31T23:01:50.088Z,25.30
2022-07-31T23:04:53.102Z,25.30
2022-07-31T23:07:55.967Z,25.30
2022-07-31T23:11:00.178Z,25.20
2022-07-31T23:14:03.029Z,25.20
2022-07-31T23:17:05.942Z,25.20
2022-07-31T23:20:10.241Z,25.10
2022-07-31T23:23:13.089Z,25.10
2022-07-31T23:26:17.992Z,25.10
2022-07-31T23:29:20.861Z,25.20
2022-07-31T23:32:23.707Z,25.20
2022-07-31T23:35:26.541Z,25.10
2022-07-31T23:38:29.369Z,25.00
2022-07-31T23:41:51.013Z,25.10
2022-07-31T23:44:53.884Z,25.10
2022-07-31T23:47:58.999Z,25.10
2022-07-31T23:51:02.800Z,25.10
2022-07-31T23:54:06.117Z,25.10
2022-07-31T23:57:10.376Z,25.10
